Time;durP1;ratioP1;P1;durP2;ratioP2;P2;SDS_P1;SDS_P2;PMS_P1;PMS_P2;Temp;Humidity;BMP_temperature;BMP_pressure;BME280_temperature;BME280_humidity;BME280_pressure;Samples;Min_cycle;Max_cycle;Signal;HPM_P1;HPM_P2
2021/03/23 00:01:42;;;;;;;11.90;4.38;;;;;;;;;;4966704;28;20057;-60
2021/03/23 00:04:11;;;;;;;10.05;4.30;;;;;;;;;;4988032;28;20043;-60
2021/03/23 00:06:37;;;;;;;7.75;3.80;;;;;;;;;;4968489;28;20050;-59
2021/03/23 00:09:04;;;;;;;9.60;3.88;;;;;;;;;;4964096;28;20058;-60
2021/03/23 00:11:32;;;;;;;7.32;3.58;;;;;;;;;;4966973;28;20091;-60
2021/03/23 00:13:59;;;;;;;8.38;3.72;;;;;;;;;;4971801;28;20128;-60
2021/03/23 00:16:26;;;;;;;8.98;3.63;;;;;;;;;;4967845;28;20050;-60
2021/03/23 00:18:52;;;;;;;11.93;4.20;;;;;;;;;;4963989;28;20058;-59
2021/03/23 00:21:18;;;;;;;10.48;3.95;;;;;;;;;;4984628;28;20064;-60
2021/03/23 00:23:45;;;;;;;10.82;4.28;;;;;;;;;;4966937;28;20038;-60
2021/03/23 00:26:12;;;;;;;8.40;3.97;;;;;;;;;;4963035;28;20035;-61
2021/03/23 00:28:39;;;;;;;9.35;3.95;;;;;;;;;;4967792;28;20042;-60
2021/03/23 00:31:06;;;;;;;7.80;3.85;;;;;;;;;;4981889;28;20075;-59
2021/03/23 00:33:32;;;;;;;10.00;4.00;;;;;;;;;;4978898;28;20120;-59
2021/03/23 00:35:59;;;;;;;10.68;3.65;;;;;;;;;;4984889;28;20046;-60
2021/03/23 00:38:26;;;;;;;10.45;4.18;;;;;;;;;;4987768;28;20050;-61
2021/03/23 00:40:52;;;;;;;8.95;3.80;;;;;;;;;;4982661;28;20053;-61
2021/03/23 00:43:19;;;;;;;9.88;4.25;;;;;;;;;;4986381;28;20034;-61
2021/03/23 00:45:48;;;;;;;9.60;3.92;;;;;;;;;;4976009;28;20038;-60
2021/03/23 00:48:15;;;;;;;9.90;4.10;;;;;;;;;;4966978;28;20047;-60
2021/03/23 00:50:41;;;;;;;8.82;3.65;;;;;;;;;;4962299;28;20051;-60
2021/03/23 00:53:08;;;;;;;8.93;4.00;;;;;;;;;;4967131;28;20079;-61
2021/03/23 00:55:34;;;;;;;12.68;3.92;;;;;;;;;;4966803;28;20046;-60
2021/03/23 00:58:00;;;;;;;9.45;3.35;;;;;;;;;;5003795;28;20042;-60
2021/03/23 01:00:27;;;;;;;10.57;4.07;;;;;;;;;;4982109;28;20038;-60
2021/03/23 01:02:54;;;;;;;9.10;4.22;;;;;;;;;;4965595;28;20071;-59
2021/03/23 01:05:21;;;;;;;10.05;3.70;;;;;;;;;;4984572;28;20045;-59
2021/03/23 01:07:47;;;;;;;8.77;3.40;;;;;;;;;;4963493;28;20050;-60
2021/03/23 01:10:14;;;;;;;13.60;4.32;;;;;;;;;;4966693;28;20050;-59
2021/03/23 01:12:41;;;;;;;13.10;4.35;;;;;;;;;;4963742;28;20047;-60
2021/03/23 01:15:08;;;;;;;10.25;4.05;;;;;;;;;;4965254;28;20058;-60
2021/03/23 01:17:33;;;;;;;9.32;3.95;;;;;;;;;;4962481;28;20053;-59
2021/03/23 01:20:01;;;;;;;9.88;3.55;;;;;;;;;;4983779;28;20035;-59
2021/03/23 01:22:27;;;;;;;7.78;3.53;;;;;;;;;;4963628;28;20042;-60
2021/03/23 01:24:53;;;;;;;12.70;3.60;;;;;;;;;;4965875;28;20067;-61
2021/03/23 01:27:19;;;;;;;9.35;3.47;;;;;;;;;;4970293;28;20054;-60
2021/03/23 01:29:45;;;;;;;8.88;3.83;;;;;;;;;;4984879;28;20045;-60
2021/03/23 01:32:11;;;;;;;10.70;4.50;;;;;;;;;;4978118;28;20114;-60
2021/03/23 01:34:37;;;;;;;9.90;3.90;;;;;;;;;;4964968;28;20066;-60
2021/03/23 01:37:04;;;;;;;14.57;4.97;;;;;;;;;;4963122;28;20131;-59
2021/03/23 01:39:30;;;;;;;9.13;3.95;;;;;;;;;;4966057;28;20042;-60
2021/03/23 01:41:56;;;;;;;9.85;4.18;;;;;;;;;;4964723;28;20039;-59
2021/03/23 01:44:22;;;;;;;12.27;3.97;;;;;;;;;;4976434;28;20133;-61
2021/03/23 01:46:49;;;;;;;11.45;4.45;;;;;;;;;;4965377;28;20046;-60
2021/03/23 01:49:17;;;;;;;8.35;4.03;;;;;;;;;;4962515;28;20035;-60
2021/03/23 01:51:44;;;;;;;8.27;3.75;;;;;;;;;;4965829;28;20299;-59
2021/03/23 01:54:13;;;;;;;8.63;4.13;;;;;;;;;;4963591;28;20050;-60
2021/03/23 01:56:44;;;;;;;;;;;;;;;;;;4967700;28;20068;-60
2021/03/23 01:59:10;;;;;;;9.93;3.47;;;;;;;;;;4961100;28;19934;-59
2021/03/23 02:01:37;;;;;;;12.20;3.70;;;;;;;;;;4967832;28;20039;-59
2021/03/23 02:04:04;;;;;;;9.52;4.03;;;;;;;;;;4975940;28;20023;-59
2021/03/23 02:06:37;;;;;;;13.93;4.68;;;;;;;;;;4981738;28;20042;-60
2021/03/23 02:09:04;;;;;;;13.52;4.68;;;;;;;;;;4986017;28;20050;-61
2021/03/23 02:11:31;;;;;;;16.65;4.93;;;;;;;;;;4999981;28;20042;-61
2021/03/23 02:13:57;;;;;;;11.40;3.90;;;;;;;;;;4993377;28;20052;-61
2021/03/23 02:16:25;;;;;;;13.48;4.93;;;;;;;;;;4980498;28;20314;-60
2021/03/23 02:18:51;;;;;;;13.45;4.90;;;;;;;;;;4977670;28;20089;-59
2021/03/23 02:21:18;;;;;;;9.05;4.07;;;;;;;;;;4980702;28;20148;-59
2021/03/23 02:23:45;;;;;;;10.98;4.97;;;;;;;;;;4979255;28;20492;-59
2021/03/23 02:26:13;;;;;;;11.88;4.70;;;;;;;;;;4982313;28;20045;-60
2021/03/23 02:28:41;;;;;;;10.50;4.73;;;;;;;;;;4980400;28;20065;-61
2021/03/23 02:31:07;;;;;;;12.15;5.22;;;;;;;;;;4978737;28;20054;-61
2021/03/23 02:33:33;;;;;;;14.82;5.55;;;;;;;;;;4981720;28;20047;-61
2021/03/23 02:35:59;;;;;;;12.13;5.20;;;;;;;;;;4978407;28;20054;-59
2021/03/23 02:38:26;;;;;;;12.82;5.88;;;;;;;;;;4982654;28;20046;-59
2021/03/23 02:40:52;;;;;;;17.63;5.45;;;;;;;;;;4977768;28;20075;-60
2021/03/23 02:43:17;;;;;;;12.50;5.50;;;;;;;;;;4990111;28;20054;-59
2021/03/23 02:45:46;;;;;;;10.05;4.75;;;;;;;;;;4985763;28;20050;-59
2021/03/23 02:48:12;;;;;;;14.88;5.38;;;;;;;;;;4986138;28;20030;-60
2021/03/23 02:50:38;;;;;;;12.27;5.45;;;;;;;;;;4981909;28;20082;-60
2021/03/23 02:53:04;;;;;;;17.95;5.45;;;;;;;;;;4985463;28;20122;-61
2021/03/23 02:55:31;;;;;;;13.88;5.20;;;;;;;;;;4987702;28;20034;-60
2021/03/23 02:57:57;;;;;;;15.15;5.60;;;;;;;;;;5005305;28;20049;-59
2021/03/23 03:00:23;;;;;;;11.40;4.68;;;;;;;;;;4998180;28;20055;-60
2021/03/23 03:02:49;;;;;;;12.10;4.95;;;;;;;;;;4981104;28;20174;-58
2021/03/23 03:05:15;;;;;;;13.93;5.97;;;;;;;;;;4961789;28;20127;-60
2021/03/23 03:07:41;;;;;;;17.90;5.20;;;;;;;;;;4965075;28;20120;-59
2021/03/23 03:10:08;;;;;;;14.77;6.00;;;;;;;;;;4965476;28;20038;-59
2021/03/23 03:12:35;;;;;;;16.50;5.65;;;;;;;;;;4961135;28;20047;-60
2021/03/23 03:15:04;;;;;;;14.32;5.35;;;;;;;;;;4965097;28;20035;-60
2021/03/23 03:17:29;;;;;;;12.25;5.30;;;;;;;;;;4976887;28;20093;-59
2021/03/23 03:19:55;;;;;;;16.10;5.78;;;;;;;;;;4986539;28;20350;-60
2021/03/23 03:22:21;;;;;;;19.45;6.93;;;;;;;;;;4979804;28;20095;-60
2021/03/23 03:24:47;;;;;;;14.13;5.72;;;;;;;;;;4983379;28;20042;-60
2021/03/23 03:27:13;;;;;;;16.73;6.28;;;;;;;;;;4971365;28;20043;-60
2021/03/23 03:29:40;;;;;;;16.98;6.97;;;;;;;;;;4967864;28;20046;-58
2021/03/23 03:32:07;;;;;;;18.30;6.50;;;;;;;;;;4964727;28;20043;-60
2021/03/23 03:34:34;;;;;;;16.77;6.80;;;;;;;;;;4964535;28;20027;-60
2021/03/23 03:37:00;;;;;;;18.27;7.07;;;;;;;;;;4967661;28;20046;-60
2021/03/23 03:39:26;;;;;;;20.77;7.32;;;;;;;;;;4984457;28;20116;-60
2021/03/23 03:41:52;;;;;;;18.33;7.80;;;;;;;;;;4978468;28;20027;-59
2021/03/23 03:44:18;;;;;;;17.05;7.50;;;;;;;;;;4964434;28;20035;-60
2021/03/23 03:46:45;;;;;;;21.10;7.55;;;;;;;;;;4964059;28;20047;-59
2021/03/23 03:49:11;;;;;;;19.65;8.00;;;;;;;;;;4997754;28;20063;-60
2021/03/23 03:51:37;;;;;;;22.20;7.38;;;;;;;;;;4983062;28;20110;-60
2021/03/23 03:54:05;;;;;;;18.63;7.72;;;;;;;;;;4963825;28;20047;-59
2021/03/23 03:56:31;;;;;;;20.92;7.85;;;;;;;;;;4962654;28;20094;-59
2021/03/23 03:58:57;;;;;;;16.85;7.50;;;;;;;;;;4974576;28;20047;-60
2021/03/23 04:01:22;;;;;;;18.10;8.32;;;;;;;;;;4982991;28;20062;-60
2021/03/23 04:03:49;;;;;;;26.13;9.07;;;;;;;;;;4989065;28;20042;-60
2021/03/23 04:06:16;;;;;;;27.80;10.57;;;;;;;;;;4983043;28;20049;-60
2021/03/23 04:08:42;;;;;;;28.40;9.88;;;;;;;;;;4980892;28;20039;-60
2021/03/23 04:11:09;;;;;;;21.88;9.85;;;;;;;;;;4983655;28;20058;-60
2021/03/23 04:13:36;;;;;;;24.90;10.52;;;;;;;;;;4979553;28;20039;-60
2021/03/23 04:16:02;;;;;;;29.67;9.20;;;;;;;;;;4993745;28;20062;-60
2021/03/23 04:18:29;;;;;;;21.33;9.38;;;;;;;;;;4995607;28;20030;-60
2021/03/23 04:20:57;;;;;;;25.85;11.05;;;;;;;;;;4982281;28;20077;-59
2021/03/23 04:23:24;;;;;;;21.05;9.48;;;;;;;;;;4981794;28;20034;-60
2021/03/23 04:25:50;;;;;;;27.10;9.90;;;;;;;;;;4985434;28;20043;-60
2021/03/23 04:28:17;;;;;;;21.75;10.20;;;;;;;;;;4983107;28;20050;-60
2021/03/23 04:30:43;;;;;;;23.83;11.00;;;;;;;;;;4979590;28;20042;-60
2021/03/23 04:33:09;;;;;;;20.83;9.68;;;;;;;;;;4982001;28;20064;-59
2021/03/23 04:35:41;;;;;;;21.95;9.32;;;;;;;;;;4982108;28;20079;-59
2021/03/23 04:38:08;;;;;;;25.63;10.32;;;;;;;;;;4983152;28;20112;-59
2021/03/23 04:40:34;;;;;;;23.27;10.57;;;;;;;;;;4993364;28;20046;-59
2021/03/23 04:43:00;;;;;;;21.55;9.48;;;;;;;;;;4999738;28;20031;-59
2021/03/23 04:45:26;;;;;;;22.52;10.15;;;;;;;;;;4989081;28;20057;-59
2021/03/23 04:47:52;;;;;;;28.30;11.15;;;;;;;;;;5003073;28;20042;-59
2021/03/23 04:50:20;;;;;;;29.05;10.85;;;;;;;;;;4990894;28;20038;-60
2021/03/23 04:52:46;;;;;;;24.27;10.20;;;;;;;;;;4983026;28;20110;-60
2021/03/23 04:55:14;;;;;;;26.30;10.05;;;;;;;;;;4981808;28;20414;-59
2021/03/23 04:57:40;;;;;;;;;;;;;;;;;;4985384;28;20039;-60
2021/03/23 05:00:07;;;;;;;20.23;8.77;;;;;;;;;;4978926;28;19962;-61
2021/03/23 05:02:33;;;;;;;24.50;10.32;;;;;;;;;;4983699;28;20046;-61
2021/03/23 05:05:00;;;;;;;30.65;9.82;;;;;;;;;;4984533;28;20125;-60
2021/03/23 05:07:26;;;;;;;29.30;9.10;;;;;;;;;;5003960;28;20048;-60
2021/03/23 05:09:52;;;;;;;29.30;10.05;;;;;;;;;;5020438;28;20045;-60
2021/03/23 05:12:19;;;;;;;23.50;9.48;;;;;;;;;;4983762;28;20180;-59
2021/03/23 05:14:46;;;;;;;25.67;9.93;;;;;;;;;;4986037;28;20045;-60
2021/03/23 05:17:13;;;;;;;24.20;9.88;;;;;;;;;;4997787;28;20318;-60
2021/03/23 05:19:39;;;;;;;24.85;10.15;;;;;;;;;;5006068;28;20050;-59
2021/03/23 05:22:05;;;;;;;28.27;10.70;;;;;;;;;;5005979;28;20052;-60
2021/03/23 05:24:31;;;;;;;25.73;10.75;;;;;;;;;;4986638;28;20123;-59
2021/03/23 05:26:57;;;;;;;27.23;10.23;;;;;;;;;;4999153;28;20057;-60
2021/03/23 05:29:24;;;;;;;29.33;11.52;;;;;;;;;;4984035;28;20042;-59
2021/03/23 05:31:50;;;;;;;26.77;10.57;;;;;;;;;;4990273;28;20100;-59
2021/03/23 05:34:17;;;;;;;24.42;9.35;;;;;;;;;;5004880;28;20041;-59
2021/03/23 05:36:44;;;;;;;28.95;10.18;;;;;;;;;;4996391;28;20042;-59
2021/03/23 05:39:10;;;;;;;28.65;9.98;;;;;;;;;;4985267;28;20034;-60
2021/03/23 05:41:42;;;;;;;25.73;10.27;;;;;;;;;;5000546;28;20042;-61
2021/03/23 05:44:16;;;;;;;27.45;10.18;;;;;;;;;;4990578;28;20057;-60
2021/03/23 05:46:43;;;;;;;26.27;9.75;;;;;;;;;;4998394;28;20042;-58
2021/03/23 05:49:26;;;;;;;28.13;10.40;;;;;;;;;;4984496;28;20139;-60
2021/03/23 05:51:55;;;;;;;32.67;10.73;;;;;;;;;;4982428;28;20046;-59
2021/03/23 05:54:22;;;;;;;24.83;10.25;;;;;;;;;;4986187;28;20042;-59
2021/03/23 05:56:50;;;;;;;25.17;10.10;;;;;;;;;;4983736;28;20042;-60
2021/03/23 05:59:17;;;;;;;30.20;10.80;;;;;;;;;;4999862;28;20062;-60
2021/03/23 06:01:48;;;;;;;26.60;10.65;;;;;;;;;;4985487;28;20046;-59
2021/03/23 06:04:19;;;;;;;27.52;10.00;;;;;;;;;;4983566;28;20030;-60
2021/03/23 06:06:49;;;;;;;20.67;9.80;;;;;;;;;;5003690;28;20052;-59
2021/03/23 06:09:18;;;;;;;24.08;9.40;;;;;;;;;;4981946;28;20377;-60
2021/03/23 06:11:50;;;;;;;30.60;10.35;;;;;;;;;;5002350;28;20093;-60
2021/03/23 06:14:36;;;;;;;32.10;10.32;;;;;;;;;;4999006;28;20059;-59
2021/03/23 06:17:08;;;;;;;30.13;9.75;;;;;;;;;;4996971;28;20099;-59
2021/03/23 06:19:39;;;;;;;30.30;10.52;;;;;;;;;;4990068;28;20050;-59
2021/03/23 06:22:09;;;;;;;28.58;10.43;;;;;;;;;;4990444;28;20157;-59
2021/03/23 06:24:46;;;;;;;26.92;10.45;;;;;;;;;;4987535;28;20053;-59
2021/03/23 06:27:18;;;;;;;31.48;10.48;;;;;;;;;;4988917;28;20061;-60
2021/03/23 06:29:52;;;;;;;32.38;10.32;;;;;;;;;;4985044;28;20052;-60
2021/03/23 06:32:35;;;;;;;33.33;11.18;;;;;;;;;;4987852;28;20074;-61
2021/03/23 06:35:01;;;;;;;26.52;10.15;;;;;;;;;;4982144;28;20053;-59
2021/03/23 06:37:29;;;;;;;28.73;10.45;;;;;;;;;;4986689;28;20042;-60
2021/03/23 06:39:55;;;;;;;25.95;10.10;;;;;;;;;;4984708;28;20045;-59
2021/03/23 06:42:37;;;;;;;37.63;13.73;;;;;;;;;;5004457;28;20135;-60
2021/03/23 06:45:21;;;;;;;37.47;12.15;;;;;;;;;;5003410;28;20050;-60
2021/03/23 06:47:49;;;;;;;40.38;12.95;;;;;;;;;;5001516;28;20037;-60
2021/03/23 06:50:23;;;;;;;30.50;12.18;;;;;;;;;;5018456;28;20048;-60
2021/03/23 06:53:02;;;;;;;32.03;11.38;;;;;;;;;;5012576;28;20050;-60
2021/03/23 06:55:28;;;;;;;37.08;11.85;;;;;;;;;;4993505;28;20135;-60
2021/03/23 06:57:54;;;;;;;48.92;13.98;;;;;;;;;;5003465;28;20046;-60
2021/03/23 07:00:24;;;;;;;34.22;12.70;;;;;;;;;;4995924;28;20038;-60
2021/03/23 07:02:51;;;;;;;52.65;17.95;;;;;;;;;;5004946;28;20131;-60
2021/03/23 07:05:38;;;;;;;47.55;16.33;;;;;;;;;;4998945;28;20053;-60
2021/03/23 07:08:18;;;;;;;32.85;11.98;;;;;;;;;;4991002;28;20168;-59
2021/03/23 07:11:01;;;;;;;51.55;14.95;;;;;;;;;;5015147;28;20049;-59
2021/03/23 07:13:31;;;;;;;41.42;13.65;;;;;;;;;;5015664;28;20081;-59
2021/03/23 07:15:58;;;;;;;46.60;12.93;;;;;;;;;;5009918;28;20034;-58
2021/03/23 07:18:28;;;;;;;54.80;18.88;;;;;;;;;;5001230;28;20123;-60
2021/03/23 07:20:55;;;;;;;53.90;18.38;;;;;;;;;;4993086;28;20086;-60
2021/03/23 07:23:30;;;;;;;49.47;17.35;;;;;;;;;;4997938;28;20050;-60
2021/03/23 07:25:57;;;;;;;46.72;15.55;;;;;;;;;;5010732;28;20033;-60
2021/03/23 07:28:25;;;;;;;44.67;16.35;;;;;;;;;;5020036;28;20046;-60
2021/03/23 07:30:54;;;;;;;54.43;17.03;;;;;;;;;;4996133;28;20050;-60
2021/03/23 07:33:25;;;;;;;47.95;18.30;;;;;;;;;;5000771;28;20034;-60
2021/03/23 07:35:52;;;;;;;48.80;17.25;;;;;;;;;;4997027;28;20038;-60
2021/03/23 07:38:23;;;;;;;53.80;16.10;;;;;;;;;;5001538;28;20061;-59
2021/03/23 07:40:52;;;;;;;49.47;18.02;;;;;;;;;;5016647;28;20198;-60
2021/03/23 07:43:21;;;;;;;40.75;13.52;;;;;;;;;;4995564;28;20029;-60
2021/03/23 07:45:54;;;;;;;48.15;14.52;;;;;;;;;;5001074;28;20042;-60
2021/03/23 07:48:22;;;;;;;43.40;13.85;;;;;;;;;;5017457;28;20073;-60
2021/03/23 07:50:51;;;;;;;48.58;15.18;;;;;;;;;;4999462;28;20131;-60
2021/03/23 07:53:21;;;;;;;40.03;13.65;;;;;;;;;;5003756;28;20124;-61
2021/03/23 07:55:48;;;;;;;33.13;12.05;;;;;;;;;;5005225;28;20038;-61
2021/03/23 07:58:24;;;;;;;42.45;13.88;;;;;;;;;;4997010;28;20045;-58
2021/03/23 08:01:06;;;;;;;40.13;14.00;;;;;;;;;;5006566;28;20037;-60
2021/03/23 08:03:47;;;;;;;40.22;12.65;;;;;;;;;;4983249;28;20128;-59
2021/03/23 08:06:18;;;;;;;30.50;10.75;;;;;;;;;;4983591;28;20036;-61
2021/03/23 08:08:52;;;;;;;37.45;13.00;;;;;;;;;;4994965;28;20038;-60
2021/03/23 08:11:26;;;;;;;41.60;14.27;;;;;;;;;;5002659;28;20034;-61
2021/03/23 08:14:01;;;;;;;45.33;12.98;;;;;;;;;;4986945;28;20054;-61
2021/03/23 08:16:34;;;;;;;36.10;13.07;;;;;;;;;;4982078;28;20042;-60
2021/03/23 08:19:17;;;;;;;51.33;14.77;;;;;;;;;;4983694;28;20054;-62
2021/03/23 08:22:04;;;;;;;41.17;12.82;;;;;;;;;;4991269;28;20035;-61
2021/03/23 08:24:35;;;;;;;40.03;13.70;;;;;;;;;;4959438;28;20093;-62
2021/03/23 08:27:13;;;;;;;45.53;14.55;;;;;;;;;;4982238;28;20051;-62
2021/03/23 08:29:44;;;;;;;37.17;12.93;;;;;;;;;;4963174;28;20047;-61
2021/03/23 08:32:15;;;;;;;48.88;14.48;;;;;;;;;;4983094;28;20042;-61
2021/03/23 08:34:47;;;;;;;41.78;13.40;;;;;;;;;;4980732;28;20121;-60
2021/03/23 08:37:29;;;;;;;55.40;15.35;;;;;;;;;;4981727;28;20062;-61
2021/03/23 08:40:03;;;;;;;46.60;13.75;;;;;;;;;;4980015;28;20051;-60
2021/03/23 08:42:29;;;;;;;43.03;14.93;;;;;;;;;;4982407;28;20042;-60
2021/03/23 08:44:57;;;;;;;54.60;15.48;;;;;;;;;;4980083;28;20054;-61
2021/03/23 08:47:26;;;;;;;46.55;15.10;;;;;;;;;;4982206;28;20031;-62
2021/03/23 08:49:53;;;;;;;40.58;13.77;;;;;;;;;;4979614;28;20038;-59
2021/03/23 08:52:33;;;;;;;43.13;14.20;;;;;;;;;;4983031;28;20042;-61
2021/03/23 08:55:00;;;;;;;44.10;12.93;;;;;;;;;;5006514;28;20045;-60
2021/03/23 08:57:45;;;;;;;46.95;14.60;;;;;;;;;;5002451;28;20038;-60
2021/03/23 09:00:35;;;;;;;51.40;14.90;;;;;;;;;;4988518;28;20042;-62
2021/03/23 09:03:01;;;;;;;47.03;14.70;;;;;;;;;;4985645;28;20055;-61
2021/03/23 09:05:33;;;;;;;46.95;14.07;;;;;;;;;;4967796;28;20035;-60
2021/03/23 09:08:18;;;;;;;41.70;15.50;;;;;;;;;;4965467;28;20053;-61
2021/03/23 09:10:49;;;;;;;45.75;14.20;;;;;;;;;;4970349;28;20078;-61
2021/03/23 09:13:21;;;;;;;46.67;14.75;;;;;;;;;;4984359;28;20295;-61
2021/03/23 09:15:50;;;;;;;43.97;14.13;;;;;;;;;;4973220;28;20055;-61
2021/03/23 09:18:16;;;;;;;;;;;;;;;;;;4965743;28;20063;-60
2021/03/23 09:20:56;;;;;;;44.05;12.70;;;;;;;;;;4966111;28;19922;-62
2021/03/23 09:23:34;;;;;;;43.17;13.60;;;;;;;;;;4983077;28;20043;-61
2021/03/23 09:26:03;;;;;;;39.28;14.38;;;;;;;;;;4978110;28;20035;-60
2021/03/23 09:28:44;;;;;;;45.97;14.00;;;;;;;;;;4982634;28;20512;-61
2021/03/23 09:31:11;;;;;;;44.28;15.07;;;;;;;;;;4971816;28;20045;-61
2021/03/23 09:33:38;;;;;;;43.58;14.02;;;;;;;;;;4963244;28;20126;-62
2021/03/23 09:36:36;;;;;;;40.63;13.55;;;;;;;;;;4959955;28;20066;-61
2021/03/23 09:39:26;;;;;;;40.78;13.98;;;;;;;;;;4960677;28;20071;-62
2021/03/23 09:41:54;;;;;;;40.90;13.00;;;;;;;;;;4966593;28;20059;-61
2021/03/23 09:44:34;;;;;;;54.93;15.67;;;;;;;;;;4976152;28;20039;-62
2021/03/23 09:47:00;;;;;;;34.20;11.98;;;;;;;;;;4976335;28;20292;-61
2021/03/23 09:49:27;;;;;;;39.83;13.35;;;;;;;;;;4981885;28;20134;-61
2021/03/23 09:51:56;;;;;;;43.58;13.38;;;;;;;;;;4973035;28;20127;-61
2021/03/23 09:54:24;;;;;;;46.97;14.30;;;;;;;;;;4965137;28;20093;-62
2021/03/23 09:56:51;;;;;;;46.97;14.80;;;;;;;;;;4967381;28;20074;-61
2021/03/23 09:59:19;;;;;;;48.55;15.75;;;;;;;;;;4987281;28;20035;-61
2021/03/23 10:01:53;;;;;;;44.97;13.63;;;;;;;;;;4981022;28;20034;-60
2021/03/23 10:04:25;;;;;;;49.83;15.85;;;;;;;;;;4980392;28;20035;-61
2021/03/23 10:06:51;;;;;;;48.95;13.98;;;;;;;;;;4966299;28;20048;-61
2021/03/23 10:09:24;;;;;;;41.22;13.98;;;;;;;;;;4968871;28;20143;-61
2021/03/23 10:11:50;;;;;;;43.80;13.20;;;;;;;;;;4968166;28;20046;-60
2021/03/23 10:14:20;;;;;;;43.00;15.57;;;;;;;;;;4968901;28;20080;-61
2021/03/23 10:16:46;;;;;;;47.72;16.60;;;;;;;;;;4984694;28;20035;-61
2021/03/23 10:19:21;;;;;;;39.20;14.52;;;;;;;;;;4995528;28;20125;-60
2021/03/23 10:21:49;;;;;;;42.97;13.85;;;;;;;;;;4968125;28;20031;-61
2021/03/23 10:24:16;;;;;;;49.00;13.50;;;;;;;;;;4978086;28;20408;-61
2021/03/23 10:26:46;;;;;;;42.25;14.40;;;;;;;;;;4984964;28;20043;-61
2021/03/23 10:29:14;;;;;;;39.95;12.90;;;;;;;;;;4981629;28;20039;-61
2021/03/23 10:31:43;;;;;;;74.63;19.80;;;;;;;;;;4968095;28;20035;-61
2021/03/23 10:34:10;;;;;;;59.97;22.90;;;;;;;;;;4962937;28;20050;-60
2021/03/23 10:36:46;;;;;;;50.53;17.02;;;;;;;;;;4967426;28;20047;-60
2021/03/23 10:39:42;;;;;;;48.78;15.23;;;;;;;;;;4963730;28;20142;-61
2021/03/23 10:42:17;;;;;;;46.40;14.52;;;;;;;;;;4966781;28;20046;-60
2021/03/23 10:44:45;;;;;;;39.35;14.45;;;;;;;;;;4971655;28;20047;-61
2021/03/23 10:47:16;;;;;;;39.40;12.50;;;;;;;;;;4967842;28;20043;-60
2021/03/23 10:49:42;;;;;;;40.97;13.73;;;;;;;;;;4964467;28;20039;-61
2021/03/23 10:52:23;;;;;;;43.47;14.38;;;;;;;;;;4968544;28;20050;-60
2021/03/23 10:55:19;;;;;;;45.25;14.90;;;;;;;;;;4965689;28;20047;-61
2021/03/23 10:57:46;;;;;;;123.75;54.53;;;;;;;;;;4967495;28;20035;-61
2021/03/23 11:00:16;;;;;;;57.22;21.83;;;;;;;;;;4965604;28;20031;-61
2021/03/23 11:02:45;;;;;;;55.83;18.40;;;;;;;;;;4972979;28;20031;-60
2021/03/23 11:05:13;;;;;;;54.53;18.02;;;;;;;;;;4984151;28;20046;-61
2021/03/23 11:07:54;;;;;;;50.45;14.95;;;;;;;;;;4990225;28;20037;-60
2021/03/23 11:10:21;;;;;;;42.58;14.70;;;;;;;;;;4986745;28;20042;-61
2021/03/23 11:12:47;;;;;;;45.13;15.50;;;;;;;;;;4994235;28;20044;-60
2021/03/23 11:15:15;;;;;;;45.28;15.25;;;;;;;;;;4996642;28;20026;-60
2021/03/23 11:17:46;;;;;;;44.63;15.07;;;;;;;;;;4989746;28;20067;-62
2021/03/23 11:20:21;;;;;;;46.20;17.20;;;;;;;;;;4991593;28;20295;-61
2021/03/23 11:22:49;;;;;;;46.30;17.33;;;;;;;;;;5006949;28;20052;-60
2021/03/23 11:25:18;;;;;;;48.80;15.25;;;;;;;;;;5005811;28;20053;-62
2021/03/23 11:27:44;;;;;;;60.33;17.00;;;;;;;;;;5026127;28;20077;-61
2021/03/23 11:30:10;;;;;;;51.33;16.02;;;;;;;;;;5006534;28;20050;-60
2021/03/23 11:32:36;;;;;;;47.22;16.65;;;;;;;;;;5009582;28;20038;-60
2021/03/23 11:35:03;;;;;;;44.85;15.70;;;;;;;;;;5006676;28;20091;-61
2021/03/23 11:37:32;;;;;;;43.40;15.25;;;;;;;;;;4988960;28;20038;-61
2021/03/23 11:39:58;;;;;;;46.03;14.80;;;;;;;;;;4988916;28;20495;-59
2021/03/23 11:42:28;;;;;;;44.42;14.57;;;;;;;;;;5020522;28;20188;-62
2021/03/23 11:44:56;;;;;;;44.03;15.35;;;;;;;;;;5002537;28;20042;-61
2021/03/23 11:47:26;;;;;;;50.07;17.10;;;;;;;;;;5002029;28;20053;-61
2021/03/23 11:49:57;;;;;;;50.20;16.52;;;;;;;;;;5009608;28;20115;-61
2021/03/23 11:52:24;;;;;;;49.05;14.82;;;;;;;;;;5006041;28;20160;-61
2021/03/23 11:54:55;;;;;;;61.80;17.35;;;;;;;;;;5009700;28;20078;-61
2021/03/23 11:57:22;;;;;;;42.65;14.65;;;;;;;;;;4991281;28;20042;-61
2021/03/23 11:59:48;;;;;;;52.33;18.90;;;;;;;;;;4990496;28;20124;-61
2021/03/23 12:02:15;;;;;;;45.25;17.13;;;;;;;;;;4986131;28;20057;-60
2021/03/23 12:04:48;;;;;;;47.22;17.48;;;;;;;;;;4982036;28;20037;-60
2021/03/23 12:07:20;;;;;;;48.88;15.80;;;;;;;;;;4965337;28;20027;-61
2021/03/23 12:09:48;;;;;;;45.95;16.17;;;;;;;;;;4966934;28;20050;-61
2021/03/23 12:12:17;;;;;;;43.10;14.68;;;;;;;;;;4970023;28;20054;-61
2021/03/23 12:14:49;;;;;;;64.20;20.80;;;;;;;;;;4984313;28;20042;-61
2021/03/23 12:17:16;;;;;;;47.97;15.70;;;;;;;;;;4978183;28;20039;-61
2021/03/23 12:19:42;;;;;;;53.53;16.27;;;;;;;;;;4966658;28;20113;-60
2021/03/23 12:22:09;;;;;;;55.53;15.68;;;;;;;;;;4965800;28;20061;-61
2021/03/23 12:25:01;;;;;;;48.63;15.38;;;;;;;;;;4985445;28;20034;-61
2021/03/23 12:27:29;;;;;;;52.40;16.70;;;;;;;;;;4926363;28;20051;-61
2021/03/23 12:29:55;;;;;;;63.05;18.60;;;;;;;;;;4965419;28;20042;-61
2021/03/23 12:32:21;;;;;;;50.55;18.20;;;;;;;;;;4965753;28;20058;-61
2021/03/23 12:34:48;;;;;;;50.33;18.02;;;;;;;;;;4965310;28;20035;-60
2021/03/23 12:37:15;;;;;;;46.92;17.88;;;;;;;;;;4967055;28;20047;-60
2021/03/23 12:39:41;;;;;;;46.38;15.82;;;;;;;;;;4965582;28;20117;-59
2021/03/23 12:42:07;;;;;;;39.70;14.68;;;;;;;;;;4965220;28;20039;-61
2021/03/23 12:44:35;;;;;;;45.90;15.18;;;;;;;;;;4963099;28;20043;-60
2021/03/23 12:47:01;;;;;;;53.25;16.15;;;;;;;;;;4982206;28;20043;-62
2021/03/23 12:49:27;;;;;;;40.92;16.15;;;;;;;;;;4977097;28;20042;-61
2021/03/23 12:51:56;;;;;;;46.42;15.98;;;;;;;;;;4962871;28;20047;-60
2021/03/23 12:54:34;;;;;;;58.63;16.48;;;;;;;;;;4971930;28;20150;-60
2021/03/23 12:57:00;;;;;;;52.83;17.42;;;;;;;;;;4984540;28;20033;-62
2021/03/23 12:59:27;;;;;;;47.17;14.25;;;;;;;;;;4980655;28;20026;-60
2021/03/23 13:01:54;;;;;;;49.80;15.52;;;;;;;;;;4985264;28;20066;-62
2021/03/23 13:04:21;;;;;;;260.00;22.38;;;;;;;;;;4990189;28;20055;-62
2021/03/23 13:06:47;;;;;;;61.08;15.32;;;;;;;;;;4985400;28;20039;-60
2021/03/23 13:09:13;;;;;;;61.97;18.20;;;;;;;;;;4988209;28;20042;-62
2021/03/23 13:11:41;;;;;;;56.90;18.40;;;;;;;;;;5005252;28;20042;-62
2021/03/23 13:14:09;;;;;;;49.13;17.83;;;;;;;;;;4999923;28;20109;-61
2021/03/23 13:16:36;;;;;;;51.45;16.45;;;;;;;;;;4985848;28;20035;-60
2021/03/23 13:19:03;;;;;;;55.53;17.90;;;;;;;;;;4986085;28;20049;-62
2021/03/23 13:21:31;;;;;;;76.57;19.38;;;;;;;;;;5003615;28;20062;-60
2021/03/23 13:23:59;;;;;;;70.47;16.58;;;;;;;;;;5004148;28;20042;-60
2021/03/23 13:26:28;;;;;;;62.08;21.30;;;;;;;;;;5001265;28;20053;-61
2021/03/23 13:29:00;;;;;;;56.63;17.83;;;;;;;;;;5005090;28;20038;-61
2021/03/23 13:31:27;;;;;;;49.78;17.52;;;;;;;;;;4985529;28;20039;-61
2021/03/23 13:33:53;;;;;;;54.60;18.70;;;;;;;;;;4985295;28;20049;-62
2021/03/23 13:36:32;;;;;;;63.15;20.00;;;;;;;;;;4980938;28;20053;-61
2021/03/23 13:39:03;;;;;;;76.10;18.65;;;;;;;;;;4985273;28;20035;-61
2021/03/23 13:41:29;;;;;;;52.88;16.23;;;;;;;;;;4994607;28;20046;-61
2021/03/23 13:43:56;;;;;;;50.08;17.17;;;;;;;;;;4995797;28;20045;-61
2021/03/23 13:46:33;;;;;;;40.25;14.65;;;;;;;;;;4989074;28;20116;-61
2021/03/23 13:49:00;;;;;;;46.80;16.30;;;;;;;;;;4984792;28;20045;-61
2021/03/23 13:51:26;;;;;;;50.78;16.63;;;;;;;;;;4996784;28;20050;-62
2021/03/23 13:53:53;;;;;;;51.40;17.05;;;;;;;;;;5006007;28;20153;-62
2021/03/23 13:56:22;;;;;;;46.70;17.13;;;;;;;;;;4995582;28;20049;-62
2021/03/23 13:58:48;;;;;;;;;;;;;;;;;;4983338;28;20039;-61
2021/03/23 14:01:14;;;;;;;42.30;14.38;;;;;;;;;;4984819;28;19934;-60
2021/03/23 14:03:40;;;;;;;46.15;17.02;;;;;;;;;;5002074;28;20049;-60
2021/03/23 14:06:14;;;;;;;52.70;17.90;;;;;;;;;;4999517;28;20034;-61
2021/03/23 14:08:41;;;;;;;44.80;17.48;;;;;;;;;;5004100;28;20031;-62
2021/03/23 14:11:09;;;;;;;48.88;17.30;;;;;;;;;;5001529;28;20022;-60
2021/03/23 14:13:35;;;;;;;46.58;16.85;;;;;;;;;;5003419;28;20030;-61
2021/03/23 14:16:07;;;;;;;44.53;17.27;;;;;;;;;;5003352;28;20053;-61
2021/03/23 14:18:33;;;;;;;49.65;17.85;;;;;;;;;;4999897;28;20053;-60
2021/03/23 14:21:00;;;;;;;49.53;18.95;;;;;;;;;;5003858;28;20026;-61
2021/03/23 14:23:28;;;;;;;42.30;15.52;;;;;;;;;;4985468;28;20047;-61
2021/03/23 14:26:09;;;;;;;54.95;19.88;;;;;;;;;;4985544;28;20039;-62
2021/03/23 14:28:36;;;;;;;39.20;14.90;;;;;;;;;;4978201;28;20034;-61
2021/03/23 14:31:03;;;;;;;42.53;17.13;;;;;;;;;;4981509;28;20093;-60
2021/03/23 14:33:29;;;;;;;41.10;15.90;;;;;;;;;;4991412;28;20050;-60
2021/03/23 14:35:55;;;;;;;41.38;15.15;;;;;;;;;;5002144;28;20111;-61